Time;durP1;ratioP1;P1;durP2;ratioP2;P2;SDS_P1;SDS_P2;PMS_P1;PMS_P2;Temp;Humidity;BMP_temperature;BMP_pressure;BME280_temperature;BME280_humidity;BME280_pressure;Samples;Min_cycle;Max_cycle;Signal;HPM_P1;HPM_P2
2022/08/09 00:00:18;;;;;;;10.00;4.95;;;14.20;99.90;;;;;;5056322;28;20084;-81
2022/08/09 00:02:44;;;;;;;8.13;5.22;;;14.20;99.90;;;;;;5056466;28;20066;-82
2022/08/09 00:05:09;;;;;;;10.10;5.22;;;14.10;99.90;;;;;;5055348;28;20136;-82
2022/08/09 00:07:35;;;;;;;8.35;5.22;;;14.10;99.90;;;;;;5073966;28;20136;-81
2022/08/09 00:10:01;;;;;;;8.18;5.22;;;14.10;99.90;;;;;;5073837;28;20099;-81
2022/08/09 00:12:26;;;;;;;7.57;5.45;;;14.00;99.90;;;;;;5073639;28;20098;-81
2022/08/09 00:14:52;;;;;;;8.45;4.90;;;14.00;99.90;;;;;;5055953;28;20102;-81
2022/08/09 00:17:18;;;;;;;9.40;5.47;;;14.00;99.90;;;;;;5073717;28;20134;-81
2022/08/09 00:19:43;;;;;;;8.63;5.95;;;14.00;99.90;;;;;;5073750;28;20131;-81
2022/08/09 00:22:09;;;;;;;8.68;5.80;;;14.00;99.90;;;;;;5056224;28;20131;-81
2022/08/09 00:24:34;;;;;;;9.68;5.70;;;13.90;99.90;;;;;;5073745;28;20052;-81
2022/08/09 00:27:01;;;;;;;8.27;5.82;;;13.90;99.90;;;;;;5073425;28;20048;-81
2022/08/09 00:29:27;;;;;;;11.00;5.70;;;13.90;99.90;;;;;;5039050;28;20092;-81
2022/08/09 00:31:53;;;;;;;6.63;5.68;;;13.80;99.90;;;;;;5055690;28;20099;-82
2022/08/09 00:34:19;;;;;;;9.52;5.30;;;13.80;99.90;;;;;;5073430;28;20512;-81
2022/08/09 00:36:45;;;;;;;7.95;5.07;;;13.80;99.90;;;;;;5055660;28;20096;-82
2022/08/09 00:39:11;;;;;;;7.90;5.10;;;13.70;99.90;;;;;;5073239;28;20063;-83
2022/08/09 00:41:37;;;;;;;6.75;5.95;;;13.80;99.90;;;;;;5055780;28;20048;-82
2022/08/09 00:44:02;;;;;;;9.73;6.10;;;13.70;99.90;;;;;;5073032;28;20052;-82
2022/08/09 00:46:28;;;;;;;10.07;5.80;;;13.80;99.90;;;;;;5072839;28;20059;-82
2022/08/09 00:48:54;;;;;;;8.05;5.65;;;13.80;99.90;;;;;;5055493;28;20106;-82
2022/08/09 00:51:20;;;;;;;8.40;6.00;;;13.80;99.90;;;;;;5073196;28;20044;-82
2022/08/09 00:53:46;;;;;;;10.13;5.82;;;13.80;99.90;;;;;;5055335;28;20075;-82
2022/08/09 00:56:13;;;;;;;9.45;6.68;;;13.70;99.90;;;;;;5072698;28;20064;-82
2022/08/09 00:58:39;;;;;;;10.43;6.35;;;13.80;99.90;;;;;;5073116;28;20408;-82
2022/08/09 01:01:28;;;;;;;9.90;6.50;;;13.60;99.90;;;;;;5072669;28;20056;-81
2022/08/09 01:04:35;;;;;;;7.90;6.20;;;13.60;99.90;;;;;;5055020;28;20056;-81
2022/08/09 01:07:21;;;;;;;12.35;6.38;;;13.60;99.90;;;;;;5072704;28;20056;-82
2022/08/09 01:10:04;;;;;;;11.75;6.70;;;13.60;99.90;;;;;;5072880;28;20057;-82
2022/08/09 01:12:44;;;;;;;8.63;5.90;;;13.50;99.90;;;;;;5072722;28;20055;-82
2022/08/09 01:15:15;;;;;;;10.00;6.45;;;13.50;99.90;;;;;;5072675;28;20117;-82
2022/08/09 01:17:50;;;;;;;8.88;7.10;;;13.50;99.90;;;;;;5072517;28;20048;-81
2022/08/09 01:20:43;;;;;;;9.18;6.57;;;13.50;99.90;;;;;;5055061;28;20057;-83
2022/08/09 01:23:21;;;;;;;9.52;7.28;;;13.40;99.90;;;;;;5072544;28;20185;-81
2022/08/09 01:26:01;;;;;;;10.15;6.95;;;13.40;99.90;;;;;;5072474;28;20568;-81
2022/08/09 01:28:29;;;;;;;8.80;6.63;;;13.40;99.90;;;;;;5054535;28;20060;-82
2022/08/09 01:30:59;;;;;;;12.60;7.43;;;13.40;99.90;;;;;;5072668;28;20099;-82
2022/08/09 01:33:28;;;;;;;10.50;7.50;;;13.30;99.90;;;;;;5072349;28;20063;-82
2022/08/09 01:36:01;;;;;;;10.95;7.90;;;13.30;99.90;;;;;;5054759;28;20063;-82
2022/08/09 01:38:33;;;;;;;11.52;7.18;;;13.20;99.90;;;;;;5054701;28;20060;-81
2022/08/09 01:41:05;;;;;;;12.27;7.53;;;13.20;99.90;;;;;;5072099;28;20501;-82
2022/08/09 01:43:36;;;;;;;10.88;7.07;;;13.20;99.90;;;;;;5072357;28;20055;-82
2022/08/09 01:46:02;;;;;;;10.70;6.97;;;13.30;99.90;;;;;;5054678;28;20513;-81
2022/08/09 01:48:29;;;;;;;11.52;8.20;;;13.20;99.90;;;;;;5072283;28;20048;-81
2022/08/09 01:50:57;;;;;;;11.25;7.63;;;13.20;99.90;;;;;;5072216;28;20413;-81
2022/08/09 01:53:24;;;;;;;13.07;7.25;;;13.20;99.90;;;;;;5071823;28;20112;-82
2022/08/09 01:55:51;;;;;;;10.85;6.45;;;13.20;99.90;;;;;;5054357;28;20512;-81
2022/08/09 01:58:17;;;;;;;13.00;7.97;;;13.20;99.90;;;;;;5071250;28;20128;-84
2022/08/09 02:00:44;;;;;;;11.85;7.47;;;13.10;99.90;;;;;;5072060;28;20566;-82
2022/08/09 02:03:12;;;;;;;9.48;7.72;;;13.10;99.90;;;;;;5053876;28;20511;-82
2022/08/09 02:05:39;;;;;;;9.55;7.70;;;13.00;99.90;;;;;;5054547;28;20136;-82
2022/08/09 02:08:11;;;;;;;14.55;8.27;;;13.10;99.90;;;;;;5072095;28;20092;-82
2022/08/09 02:10:40;;;;;;;13.05;7.82;;;13.10;99.90;;;;;;5072152;28;20056;-82
2022/08/09 02:13:11;;;;;;;10.85;7.60;;;13.00;99.90;;;;;;5072136;28;20059;-81
2022/08/09 02:15:41;;;;;;;11.98;8.00;;;13.10;99.90;;;;;;5054406;28;20099;-81
2022/08/09 02:18:08;;;;;;;13.25;8.25;;;13.00;99.90;;;;;;5071908;28;20056;-81
2022/08/09 02:20:43;;;;;;;11.55;8.30;;;12.90;99.90;;;;;;5037959;28;20405;-81
2022/08/09 02:23:23;;;;;;;13.05;7.82;;;12.90;99.90;;;;;;5053659;28;20418;-82
2022/08/09 02:25:51;;;;;;;11.68;8.18;;;13.00;99.90;;;;;;5054311;28;20408;-81
2022/08/09 02:28:26;;;;;;;10.95;8.23;;;13.00;99.90;;;;;;5073538;28;20048;-82
2022/08/09 02:31:02;;;;;;;11.13;8.32;;;12.90;99.90;;;;;;5075754;28;20052;-81
2022/08/09 02:33:32;;;;;;;12.02;8.63;;;12.90;99.90;;;;;;5057413;28;20556;-81
2022/08/09 02:35:59;;;;;;;13.05;8.50;;;12.90;99.90;;;;;;5057780;28;20092;-82
2022/08/09 02:38:33;;;;;;;13.77;8.88;;;12.90;99.90;;;;;;5075612;28;20044;-81
2022/08/09 02:41:07;;;;;;;14.20;9.25;;;13.00;99.90;;;;;;5075327;28;20552;-81
2022/08/09 02:43:34;;;;;;;14.52;8.73;;;12.90;99.90;;;;;;5075994;28;20110;-82
2022/08/09 02:46:02;;;;;;;12.93;7.78;;;12.90;99.90;;;;;;5075127;28;20488;-81
2022/08/09 02:48:30;;;;;;;12.60;8.60;;;12.90;99.90;;;;;;5075434;28;20405;-81
2022/08/09 02:50:57;;;;;;;12.07;8.48;;;12.80;99.90;;;;;;5057796;28;20382;-81
2022/08/09 02:53:30;;;;;;;14.40;8.27;;;12.80;99.90;;;;;;5075201;28;20520;-82
2022/08/09 02:55:58;;;;;;;11.45;8.05;;;12.90;99.90;;;;;;5057298;28;20052;-82
2022/08/09 02:58:26;;;;;;;12.95;8.07;;;12.70;99.90;;;;;;5075093;28;20501;-83
2022/08/09 03:00:54;;;;;;;16.70;8.88;;;12.80;99.90;;;;;;5075067;28;20103;-82
2022/08/09 03:03:21;;;;;;;9.77;6.90;;;12.90;99.90;;;;;;5075045;28;20057;-83
2022/08/09 03:05:49;;;;;;;8.07;6.60;;;12.90;99.90;;;;;;5075081;28;20060;-83
2022/08/09 03:08:15;;;;;;;12.82;8.48;;;12.90;99.90;;;;;;5075137;28;20150;-83
2022/08/09 03:10:44;;;;;;;11.45;8.35;;;12.90;99.90;;;;;;5075083;28;20048;-82
2022/08/09 03:13:12;;;;;;;13.82;8.23;;;12.90;99.90;;;;;;5074828;28;20049;-82
2022/08/09 03:15:39;;;;;;;15.43;8.52;;;12.90;99.90;;;;;;5074985;28;20068;-81
2022/08/09 03:18:05;;;;;;;9.75;6.82;;;12.80;99.90;;;;;;5056620;28;20531;-82
2022/08/09 03:20:31;;;;;;;15.32;8.63;;;12.90;99.90;;;;;;5057178;28;20095;-82
2022/08/09 03:22:58;;;;;;;10.48;7.32;;;13.00;99.90;;;;;;5074816;28;20087;-81
2022/08/09 03:25:25;;;;;;;9.00;7.60;;;12.80;99.90;;;;;;5074607;28;20082;-82
2022/08/09 03:27:52;;;;;;;7.63;6.82;;;12.80;99.90;;;;;;5074485;28;20079;-83
2022/08/09 03:30:18;;;;;;;9.77;7.53;;;12.80;99.90;;;;;;5074320;28;20444;-82
2022/08/09 03:32:45;;;;;;;9.35;7.70;;;12.80;99.90;;;;;;5074656;28;20045;-83
2022/08/09 03:35:10;;;;;;;12.18;7.20;;;12.80;99.90;;;;;;5074695;28;20049;-83
2022/08/09 03:37:38;;;;;;;11.07;7.75;;;12.80;99.90;;;;;;5057007;28;20053;-82
2022/08/09 03:40:05;;;;;;;10.88;7.75;;;12.80;99.90;;;;;;5055262;28;20052;-82
2022/08/09 03:42:30;;;;;;;12.95;8.40;;;12.70;99.90;;;;;;5074323;28;20394;-82
2022/08/09 03:44:56;;;;;;;12.43;8.25;;;12.70;99.90;;;;;;5039888;28;20067;-81
2022/08/09 03:47:22;;;;;;;10.50;7.57;;;12.70;99.90;;;;;;5074482;28;20147;-82
2022/08/09 03:49:49;;;;;;;10.80;6.95;;;12.60;99.90;;;;;;5074286;28;20052;-82
2022/08/09 03:52:17;;;;;;;9.38;7.53;;;12.60;99.90;;;;;;5074134;28;20511;-82
2022/08/09 03:54:43;;;;;;;8.05;6.90;;;12.60;99.90;;;;;;5074404;28;20056;-82
2022/08/09 03:57:11;;;;;;;8.85;6.63;;;12.50;99.90;;;;;;5055979;28;20058;-83
2022/08/09 03:59:37;;;;;;;9.00;6.70;;;12.50;99.90;;;;;;5073497;28;20133;-82
2022/08/09 04:02:04;;;;;;;10.23;6.80;;;12.50;99.90;;;;;;5073594;28;20519;-82
2022/08/09 04:04:31;;;;;;;11.05;7.25;;;12.50;99.90;;;;;;5073958;28;20135;-82
2022/08/09 04:06:57;;;;;;;6.25;5.18;;;12.50;99.90;;;;;;5073919;28;20051;-83
2022/08/09 04:09:24;;;;;;;11.52;8.32;;;12.50;99.90;;;;;;5073853;28;20451;-82
2022/08/09 04:11:49;;;;;;;11.43;8.15;;;12.50;99.90;;;;;;5055904;28;20079;-82
2022/08/09 04:14:16;;;;;;;10.43;8.23;;;12.50;99.90;;;;;;5055999;28;20438;-83
2022/08/09 04:16:42;;;;;;;9.15;6.72;;;12.70;99.90;;;;;;5055533;28;20090;-84
2022/08/09 04:19:08;;;;;;;10.40;7.03;;;12.50;99.90;;;;;;5055794;28;20056;-82
2022/08/09 04:21:33;;;;;;;11.63;7.07;;;12.50;99.90;;;;;;5073632;28;20102;-82
2022/08/09 04:23:59;;;;;;;9.20;7.82;;;12.60;99.90;;;;;;5073648;28;20072;-82
2022/08/09 04:26:25;;;;;;;15.30;7.80;;;12.60;99.90;;;;;;5073518;28;20048;-82
2022/08/09 04:28:51;;;;;;;12.65;8.25;;;12.60;99.90;;;;;;5073360;28;20048;-82
2022/08/09 04:31:16;;;;;;;9.27;7.28;;;12.50;99.90;;;;;;5073517;28;20072;-82
2022/08/09 04:33:42;;;;;;;13.18;8.50;;;12.60;99.90;;;;;;5054887;28;20114;-82
2022/08/09 04:36:08;;;;;;;8.38;6.00;;;12.50;99.90;;;;;;5073361;28;20053;-83
2022/08/09 04:38:33;;;;;;;17.63;9.25;;;12.60;99.90;;;;;;5073270;28;20067;-81
2022/08/09 04:40:59;;;;;;;17.63;8.70;;;12.70;99.90;;;;;;5055262;28;20059;-81
2022/08/09 04:43:25;;;;;;;12.77;7.00;;;12.60;99.90;;;;;;5073157;28;20060;-83
2022/08/09 04:45:51;;;;;;;12.93;8.63;;;12.60;99.90;;;;;;5055279;28;20084;-82
2022/08/09 04:48:16;;;;;;;14.77;8.05;;;12.60;99.90;;;;;;5054933;28;20335;-83
2022/08/09 04:50:43;;;;;;;11.38;6.78;;;12.70;99.90;;;;;;5072500;28;20052;-82
2022/08/09 04:53:09;;;;;;;13.30;7.00;;;12.70;99.90;;;;;;5055262;28;20397;-82
2022/08/09 04:55:38;;;;;;;13.85;8.18;;;12.80;99.90;;;;;;5054962;28;20542;-82
2022/08/09 04:58:05;;;;;;;18.73;8.63;;;12.80;99.90;;;;;;5055192;28;20060;-82
2022/08/09 05:00:33;;;;;;;13.73;7.93;;;12.80;99.90;;;;;;5072732;28;20052;-82
2022/08/09 05:03:01;;;;;;;21.05;8.57;;;12.80;99.90;;;;;;5072857;28;20154;-83
2022/08/09 05:05:26;;;;;;;9.32;6.50;;;12.90;99.90;;;;;;5059777;28;20094;-82
2022/08/09 05:07:52;;;;;;;15.55;8.38;;;12.90;99.90;;;;;;5072564;28;20439;-83
2022/08/09 05:10:18;;;;;;;13.88;8.23;;;13.00;99.90;;;;;;5055198;28;20048;-82
2022/08/09 05:12:43;;;;;;;14.45;9.05;;;13.10;99.90;;;;;;5054997;28;20048;-82
2022/08/09 05:15:09;;;;;;;12.88;8.57;;;13.00;99.90;;;;;;5054794;28;20051;-82
2022/08/09 05:17:35;;;;;;;9.45;7.28;;;13.10;99.90;;;;;;5072796;28;20140;-82
2022/08/09 05:20:01;;;;;;;12.40;8.15;;;13.20;99.90;;;;;;5072901;28;20083;-83
2022/08/09 05:22:27;;;;;;;11.57;7.00;;;13.30;99.90;;;;;;5053996;28;20048;-84
2022/08/09 05:24:52;;;;;;;9.93;7.35;;;13.40;99.90;;;;;;5054897;28;20132;-83
2022/08/09 05:27:18;;;;;;;8.80;6.40;;;13.40;99.90;;;;;;5037745;28;20127;-83
2022/08/09 05:29:43;;;;;;;11.48;8.13;;;13.50;99.90;;;;;;5054895;28;20048;-81
2022/08/09 05:32:09;;;;;;;11.75;6.60;;;13.50;99.90;;;;;;5054830;28;20084;-88
2022/08/09 05:34:35;;;;;;;9.73;7.35;;;13.60;99.90;;;;;;5038098;28;20075;-83
2022/08/09 05:37:05;;;;;;;9.43;5.93;;;13.80;99.90;;;;;;5072839;28;20392;-81
2022/08/09 05:39:31;;;;;;;9.95;6.50;;;13.70;99.90;;;;;;5072490;28;20055;-83
2022/08/09 05:41:57;;;;;;;9.90;5.70;;;13.80;99.90;;;;;;5072392;28;20055;-82
2022/08/09 05:44:23;;;;;;;9.68;7.85;;;13.90;99.90;;;;;;5071317;28;20048;-82
2022/08/09 05:46:49;;;;;;;12.50;7.97;;;14.00;99.90;;;;;;5054351;28;20409;-82
2022/08/09 05:49:14;;;;;;;13.10;8.20;;;14.00;99.90;;;;;;5072358;28;20059;-81
2022/08/09 05:51:40;;;;;;;12.60;7.90;;;14.10;99.90;;;;;;5072239;28;20049;-82
2022/08/09 05:54:06;;;;;;;11.95;8.30;;;14.20;99.90;;;;;;5054643;28;20057;-81
2022/08/09 05:56:34;;;;;;;11.60;8.25;;;14.30;99.90;;;;;;5054782;28;20119;-82
2022/08/09 05:59:00;;;;;;;14.80;8.07;;;14.40;99.90;;;;;;5072238;28;20432;-83
2022/08/09 06:01:27;;;;;;;7.30;5.25;;;14.40;99.90;;;;;;5054075;28;20063;-80
2022/08/09 06:03:53;;;;;;;9.73;6.53;;;14.60;99.90;;;;;;5057143;28;20140;-83
2022/08/09 06:06:19;;;;;;;7.07;5.72;;;14.60;99.90;;;;;;5058368;28;20132;-80
2022/08/09 06:08:44;;;;;;;7.72;5.07;;;14.70;99.90;;;;;;5058637;28;20067;-83
2022/08/09 06:11:11;;;;;;;14.93;8.60;;;14.80;99.90;;;;;;5076073;28;20052;-83
2022/08/09 06:13:36;;;;;;;11.05;6.60;;;15.00;99.90;;;;;;5075932;28;20136;-80
2022/08/09 06:16:03;;;;;;;12.25;7.90;;;14.90;99.90;;;;;;5075717;28;20088;-84
2022/08/09 06:18:28;;;;;;;10.52;7.55;;;15.00;99.90;;;;;;5057750;28;20118;-83
2022/08/09 06:20:55;;;;;;;7.85;6.35;;;15.10;99.90;;;;;;5058389;28;20060;-80
2022/08/09 06:23:22;;;;;;;7.53;5.72;;;15.30;99.90;;;;;;5075906;28;20052;-81
2022/08/09 06:25:48;;;;;;;8.32;6.95;;;15.30;99.90;;;;;;5075679;28;20493;-85
2022/08/09 06:28:14;;;;;;;13.50;7.47;;;15.40;99.90;;;;;;5075766;28;20052;-82
2022/08/09 06:30:41;;;;;;;9.98;5.40;;;15.60;99.90;;;;;;5057808;28;20048;-79
2022/08/09 06:33:07;;;;;;;7.93;5.28;;;15.60;99.90;;;;;;5075721;28;20063;-81
2022/08/09 06:35:33;;;;;;;6.15;4.97;;;15.70;99.90;;;;;;5075671;28;20055;-83
2022/08/09 06:37:59;;;;;;;8.77;6.20;;;15.80;99.90;;;;;;5041471;28;20440;-83
2022/08/09 06:40:25;;;;;;;11.23;7.20;;;15.90;99.90;;;;;;5075624;28;20413;-82
2022/08/09 06:42:54;;;;;;;9.85;5.60;;;16.00;99.90;;;;;;5075438;28;20055;-83
2022/08/09 06:45:20;;;;;;;8.18;4.78;;;16.10;99.90;;;;;;5075225;28;20450;-84
2022/08/09 06:47:47;;;;;;;10.27;6.07;;;16.20;99.90;;;;;;5075391;28;20052;-82
2022/08/09 06:50:13;;;;;;;10.70;6.18;;;16.30;99.90;;;;;;5075579;28;20078;-82
2022/08/09 06:52:44;;;;;;;10.80;6.53;;;16.40;99.90;;;;;;5075270;28;20127;-83
2022/08/09 06:55:14;;;;;;;9.52;6.25;;;16.50;99.90;;;;;;5057820;28;20468;-82
2022/08/09 06:57:40;;;;;;;6.63;5.30;;;16.60;99.90;;;;;;5057740;28;20060;-84
2022/08/09 07:00:07;;;;;;;9.02;5.93;;;16.70;99.90;;;;;;5074891;28;20110;-83
2022/08/09 07:02:32;;;;;;;5.40;4.00;;;16.80;99.90;;;;;;5075091;28;20049;-80
2022/08/09 07:04:59;;;;;;;8.27;5.55;;;16.90;99.90;;;;;;5075072;28;20459;-79
2022/08/09 07:07:25;;;;;;;8.30;5.20;;;17.00;99.90;;;;;;5041086;28;20048;-84
2022/08/09 07:09:50;;;;;;;5.70;4.40;;;17.10;99.90;;;;;;5075098;28;20052;-81
2022/08/09 07:12:16;;;;;;;7.88;5.13;;;17.20;99.90;;;;;;5074820;28;20049;-80
2022/08/09 07:14:42;;;;;;;12.75;4.90;;;17.30;99.90;;;;;;5040286;28;20064;-79
2022/08/09 07:17:07;;;;;;;6.03;4.35;;;17.50;99.90;;;;;;5056775;28;20103;-78
2022/08/09 07:19:33;;;;;;;6.40;4.10;;;17.60;99.90;;;;;;5074901;28;20079;-82
2022/08/09 07:21:59;;;;;;;8.48;3.42;;;17.60;99.90;;;;;;5074770;28;20136;-83
2022/08/09 07:24:29;;;;;;;5.63;3.92;;;17.80;99.90;;;;;;5056986;28;20059;-79
2022/08/09 07:26:56;;;;;;;6.50;3.83;;;17.90;99.90;;;;;;5074671;28;20052;-81
2022/08/09 07:29:21;;;;;;;5.93;3.38;;;18.00;99.90;;;;;;5074429;28;20524;-83
2022/08/09 07:31:47;;;;;;;5.65;3.22;;;18.20;99.90;;;;;;5073271;28;20048;-82
2022/08/09 07:34:12;;;;;;;4.78;3.17;;;18.40;99.90;;;;;;5074697;28;20127;-83
2022/08/09 07:36:39;;;;;;;6.72;2.80;;;18.50;99.90;;;;;;5040229;28;20063;-82
2022/08/09 07:39:05;;;;;;;6.78;2.70;;;18.60;99.90;;;;;;5056858;28;20068;-83
2022/08/09 07:41:31;;;;;;;5.72;2.20;;;18.60;99.90;;;;;;5074821;28;20052;-82
2022/08/09 07:43:57;;;;;;;4.80;2.08;;;18.60;99.90;;;;;;5074260;28;20049;-81
2022/08/09 07:46:23;;;;;;;4.35;1.73;;;18.80;99.90;;;;;;5074181;28;20061;-82
2022/08/09 07:48:49;;;;;;;3.58;1.40;;;19.00;99.90;;;;;;5056725;28;20102;-83
2022/08/09 07:51:15;;;;;;;3.97;1.08;;;19.10;99.90;;;;;;5056497;28;20114;-80
2022/08/09 07:53:40;;;;;;;3.00;1.05;;;19.40;99.90;;;;;;5039974;28;20056;-82
2022/08/09 07:56:07;;;;;;;3.90;1.10;;;19.80;99.90;;;;;;5074195;28;20048;-82
2022/08/09 07:58:32;;;;;;;2.63;0.95;;;20.60;99.90;;;;;;5056420;28;20511;-81
2022/08/09 08:00:58;;;;;;;3.63;1.20;;;21.00;99.90;;;;;;5056166;28;20131;-87
2022/08/09 08:03:23;;;;;;;4.82;1.00;;;21.20;99.90;;;;;;5073991;28;20087;-83
2022/08/09 08:05:49;;;;;;;2.15;0.90;;;21.70;99.90;;;;;;5074092;28;20486;-82
2022/08/09 08:08:15;;;;;;;3.38;1.20;;;22.30;99.90;;;;;;5056343;28;20079;-84
2022/08/09 08:10:40;;;;;;;3.25;1.20;;;22.70;99.90;;;;;;5073955;28;20080;-83
2022/08/09 08:13:06;;;;;;;3.33;1.00;;;22.80;99.90;;;;;;5073763;28;20405;-81
2022/08/09 08:15:32;;;;;;;1.60;0.90;;;23.10;99.90;;;;;;5073607;28;20044;-85
2022/08/09 08:17:57;;;;;;;3.33;0.93;;;23.50;99.90;;;;;;5055754;28;20072;-80
2022/08/09 08:20:25;;;;;;;2.53;0.90;;;24.00;99.90;;;;;;5056007;28;20064;-82
2022/08/09 08:22:51;;;;;;;0.88;0.70;;;24.50;99.90;;;;;;5073732;28;20060;-79
2022/08/09 08:25:16;;;;;;;1.55;0.77;;;24.80;99.90;;;;;;5072950;28;20052;-91
2022/08/09 08:27:42;;;;;;;3.28;1.00;;;25.20;97.30;;;;;;5055782;28;20056;-83
2022/08/09 08:30:10;;;;;;;3.17;0.95;;;25.60;94.70;;;;;;5073468;28;20052;-82
2022/08/09 08:32:35;;;;;;;3.90;0.93;;;26.10;91.20;;;;;;5055384;28;20052;-80
2022/08/09 08:35:01;;;;;;;2.15;0.90;;;26.70;84.30;;;;;;5073373;28;20075;-83
2022/08/09 08:37:27;;;;;;;2.85;0.90;;;27.20;76.60;;;;;;5055691;28;20052;-84
2022/08/09 08:39:53;;;;;;;3.30;0.80;;;27.30;72.30;;;;;;5073299;28;20060;-83
2022/08/09 08:42:20;;;;;;;2.35;0.80;;;27.30;71.50;;;;;;5055350;28;20554;-78
2022/08/09 08:44:51;;;;;;;4.97;0.98;;;27.50;70.20;;;;;;5055604;28;20059;-79
2022/08/09 08:47:16;;;;;;;3.47;0.98;;;27.60;69.50;;;;;;5054637;28;20056;-83
2022/08/09 08:49:42;;;;;;;4.10;0.98;;;27.70;67.60;;;;;;5073405;28;20382;-80
2022/08/09 08:52:09;;;;;;;3.03;0.90;;;27.90;67.60;;;;;;5072984;28;20478;-80
2022/08/09 08:54:34;;;;;;;3.38;1.10;;;28.30;65.50;;;;;;5038769;28;20070;-83
2022/08/09 08:57:02;;;;;;;2.50;1.10;;;28.80;63.80;;;;;;5050993;28;20053;-84
2022/08/09 08:59:28;;;;;;;3.30;1.02;;;28.80;62.70;;;;;;5052903;28;20107;-84
2022/08/09 09:01:55;;;;;;;5.00;2.33;;;28.40;64.80;;;;;;5052739;28;20061;-83
2022/08/09 09:04:26;;;;;;;1.90;0.90;;;28.70;64.20;;;;;;5052850;28;20061;-83
2022/08/09 09:06:56;;;;;;;2.17;0.68;;;29.30;62.60;;;;;;5052868;28;20414;-84
2022/08/09 09:09:24;;;;;;;3.33;1.10;;;29.70;60.80;;;;;;5051923;28;20410;-83
2022/08/09 09:11:51;;;;;;;2.97;0.90;;;29.10;61.50;;;;;;5052716;28;20064;-81
2022/08/09 09:14:22;;;;;;;1.58;0.70;;;28.80;61.30;;;;;;5052562;28;20045;-81
2022/08/09 09:16:48;;;;;;;3.13;0.70;;;28.60;61.80;;;;;;5052519;28;20084;-81
2022/08/09 09:19:14;;;;;;;3.05;1.02;;;28.00;62.00;;;;;;5051674;28;20053;-82
2022/08/09 09:21:59;;;;;;;3.33;1.23;;;27.20;66.80;;;;;;5052699;28;20045;-84
2022/08/09 09:24:34;;;;;;;1.30;0.60;;;27.70;65.70;;;;;;5051397;28;20049;-80
2022/08/09 09:27:01;;;;;;;2.83;0.70;;;28.10;63.40;;;;;;5052433;28;20068;-81
2022/08/09 09:29:36;;;;;;;2.53;0.60;;;28.90;61.50;;;;;;5051327;28;20057;-80
2022/08/09 09:32:03;;;;;;;1.58;0.60;;;29.70;58.80;;;;;;5051552;28;20542;-79
2022/08/09 09:34:29;;;;;;;1.25;0.60;;;30.40;57.00;;;;;;5051430;28;20405;-80
2022/08/09 09:36:55;;;;;;;3.60;0.80;;;30.90;55.70;;;;;;5052285;28;20049;-83
2022/08/09 09:39:23;;;;;;;1.90;0.60;;;31.40;54.80;;;;;;5051165;28;20072;-82
2022/08/09 09:41:50;;;;;;;2.50;0.50;;;31.80;53.40;;;;;;5052145;28;20508;-83
2022/08/09 09:44:27;;;;;;;3.33;0.50;;;32.00;52.80;;;;;;5051157;28;20410;-83
2022/08/09 09:47:07;;;;;;;1.80;0.60;;;32.10;52.10;;;;;;5051421;28;20053;-83
2022/08/09 09:49:33;;;;;;;2.60;0.70;;;32.30;51.70;;;;;;5052297;28;20485;-83
2022/08/09 09:52:08;;;;;;;0.75;0.35;;;32.60;50.70;;;;;;5051122;28;20061;-80
2022/08/09 09:54:42;;;;;;;1.70;0.57;;;32.30;50.40;;;;;;5051996;28;20659;-82
2022/08/09 09:57:22;;;;;;;1.55;0.70;;;31.90;51.40;;;;;;5068354;28;20056;-82
2022/08/09 09:59:50;;;;;;;2.30;0.60;;;31.70;51.00;;;;;;5072314;28;20624;-83
2022/08/09 10:02:17;;;;;;;3.17;0.30;;;31.50;51.40;;;;;;5072091;28;20420;-82
2022/08/09 10:04:44;;;;;;;0.90;0.40;;;31.90;51.50;;;;;;5072260;28;20056;-82
2022/08/09 10:07:24;;;;;;;1.27;0.50;;;32.30;50.30;;;;;;5072258;28;20049;-87
2022/08/09 10:09:54;;;;;;;2.38;0.40;;;32.70;50.50;;;;;;5037954;28;20052;-83
2022/08/09 10:12:38;;;;;;;4.13;0.53;;;33.10;50.00;;;;;;5072080;28;20088;-83
2022/08/09 10:15:04;;;;;;;0.80;0.60;;;33.70;49.20;;;;;;5054514;28;20299;-79
2022/08/09 10:17:33;;;;;;;1.83;0.60;;;34.10;48.00;;;;;;5054122;28;20078;-84
2022/08/09 10:20:06;;;;;;;2.25;0.50;;;34.20;47.40;;;;;;5072139;28;20378;-83
2022/08/09 10:22:34;;;;;;;1.95;0.50;;;34.50;47.60;;;;;;5072058;28;20045;-84
2022/08/09 10:25:05;;;;;;;3.17;0.50;;;34.60;46.80;;;;;;5071957;28;20045;-84
2022/08/09 10:27:32;;;;;;;1.23;0.63;;;34.50;47.60;;;;;;5071796;28;20045;-81
2022/08/09 10:30:01;;;;;;;2.58;0.63;;;34.30;47.10;;;;;;5054080;28;20056;-82
2022/08/09 10:32:27;;;;;;;1.30;0.55;;;34.20;47.00;;;;;;5071566;28;20056;-84
2022/08/09 10:34:54;;;;;;;1.63;0.65;;;34.20;47.60;;;;;;5071898;28;20052;-83
2022/08/09 10:37:20;;;;;;;0.50;0.30;;;34.60;46.50;;;;;;5054006;28;20133;-82
2022/08/09 10:39:46;;;;;;;0.85;0.50;;;34.80;46.30;;;;;;5053962;28;20137;-80
2022/08/09 10:42:14;;;;;;;0.50;0.40;;;34.80;45.50;;;;;;5071848;28;20048;-84
2022/08/09 10:44:44;;;;;;;1.13;0.57;;;34.70;45.40;;;;;;5037471;28;20064;-85
2022/08/09 10:47:25;;;;;;;1.92;0.45;;;34.80;45.10;;;;;;5071947;28;20147;-82
2022/08/09 10:50:02;;;;;;;;;;;35.00;45.10;;;;;;5057094;28;20061;-79
2022/08/09 10:52:51;;;;;;;5.15;0.60;;;35.40;45.30;;;;;;5075114;28;19921;-84
2022/08/09 10:55:31;;;;;;;5.00;0.60;;;35.40;45.80;;;;;;5057177;28;20509;-83
2022/08/09 10:57:56;;;;;;;0.38;0.38;;;35.70;45.10;;;;;;5075535;28;20131;-81
2022/08/09 11:00:28;;;;;;;0.73;0.50;;;35.80;43.30;;;;;;5075317;28;20131;-84
2022/08/09 11:02:55;;;;;;;3.70;0.88;;;35.60;44.10;;;;;;5057577;28;20067;-84
2022/08/09 11:05:21;;;;;;;0.85;0.40;;;35.50;43.90;;;;;;5075223;28;20053;-84
2022/08/09 11:07:47;;;;;;;1.17;0.60;;;35.60;43.20;;;;;;5057228;28;20056;-86
2022/08/09 11:10:13;;;;;;;0.93;0.60;;;35.70;42.80;;;;;;5075216;28;20052;-84
2022/08/09 11:12:39;;;;;;;1.98;0.52;;;35.90;42.80;;;;;;5075176;28;20435;-81
2022/08/09 11:15:17;;;;;;;0.63;0.47;;;36.10;42.60;;;;;;5074816;28;20195;-83
2022/08/09 11:17:48;;;;;;;2.85;0.70;;;36.50;42.70;;;;;;5057264;28;20053;-88
2022/08/09 11:20:14;;;;;;;1.05;0.60;;;36.70;41.60;;;;;;5074885;28;20052;-83
2022/08/09 11:22:42;;;;;;;1.40;0.63;;;36.90;41.60;;;;;;5074573;28;20052;-83
2022/08/09 11:25:15;;;;;;;3.28;0.63;;;36.90;40.70;;;;;;5074938;28;20052;-82
2022/08/09 11:27:46;;;;;;;1.55;0.50;;;37.10;41.60;;;;;;5074757;28;20493;-83
2022/08/09 11:30:14;;;;;;;0.90;0.50;;;37.20;41.10;;;;;;5056842;28;20061;-84
2022/08/09 11:33:16;;;;;;;2.25;0.50;;;37.20;40.50;;;;;;5074666;28;20090;-83
2022/08/09 11:35:45;;;;;;;0.82;0.50;;;37.10;41.80;;;;;;5074543;28;20139;-84
2022/08/09 11:38:17;;;;;;;0.40;0.40;;;37.00;41.00;;;;;;5074560;28;20512;-82
2022/08/09 11:40:43;;;;;;;1.05;0.55;;;37.10;40.10;;;;;;5056847;28;20055;-83
2022/08/09 11:43:13;;;;;;;2.58;0.60;;;36.80;40.40;;;;;;5074529;28;20413;-84
2022/08/09 11:45:42;;;;;;;1.15;0.60;;;36.80;39.90;;;;;;5074071;28;20060;-84
2022/08/09 11:48:10;;;;;;;0.75;0.50;;;36.80;39.90;;;;;;5074366;28;20489;-83
2022/08/09 11:51:05;;;;;;;1.08;0.60;;;36.80;40.20;;;;;;5056325;28;20080;-80
2022/08/09 11:53:35;;;;;;;2.60;0.70;;;36.70;39.70;;;;;;4992580;28;20129;-81
2022/08/09 11:56:13;;;;;;;;;;;36.50;40.20;;;;;;4992751;28;20111;-83
2022/08/09 11:58:43;;;;;;;1.98;0.60;;;36.60;39.20;;;;;;4992838;28;19932;-84
2022/08/09 12:01:09;;;;;;;;;;;36.10;40.80;;;;;;4960120;28;20062;-84
2022/08/09 12:03:35;;;;;;;2.35;0.68;;;36.30;41.20;;;;;;4975903;28;20061;-85
2022/08/09 12:06:10;;;;;;;1.25;0.65;;;36.10;40.70;;;;;;4992324;28;20474;-80
2022/08/09 12:08:36;;;;;;;2.65;0.68;;;36.00;41.20;;;;;;4976550;28;20065;-81
2022/08/09 12:11:03;;;;;;;0.55;0.43;;;36.10;41.20;;;;;;4992141;28;20515;-82
2022/08/09 12:13:32;;;;;;;0.90;0.40;;;35.80;41.10;;;;;;4975971;28;20061;-83
2022/08/09 12:16:02;;;;;;;0.70;0.50;;;35.20;42.50;;;;;;4976119;28;20078;-84
2022/08/09 12:18:29;;;;;;;0.40;0.40;;;34.60;43.30;;;;;;4992166;28;20491;-82
2022/08/09 12:20:55;;;;;;;0.70;0.50;;;34.10;43.10;;;;;;4992051;28;20518;-84
2022/08/09 12:23:21;;;;;;;0.45;0.32;;;33.50;44.40;;;;;;4992020;28;20144;-81
2022/08/09 12:25:51;;;;;;;1.40;0.70;;;33.20;45.50;;;;;;4991951;28;20427;-83
2022/08/09 12:28:20;;;;;;;1.50;0.40;;;33.20;44.60;;;;;;4992080;28;20058;-82
2022/08/09 12:30:46;;;;;;;1.67;0.50;;;33.50;44.80;;;;;;5040941;28;20068;-82
2022/08/09 12:33:12;;;;;;;1.05;0.50;;;33.50;44.90;;;;;;5053521;28;20048;-82
2022/08/09 12:35:38;;;;;;;2.00;0.47;;;33.00;44.20;;;;;;5053640;28;20057;-84
2022/08/09 12:38:27;;;;;;;1.63;0.50;;;32.30;45.20;;;;;;5052276;28;20520;-85
2022/08/09 12:40:55;;;;;;;1.43;0.60;;;31.50;45.60;;;;;;5053380;28;20402;-84
2022/08/09 12:43:23;;;;;;;2.38;0.43;;;30.70;47.90;;;;;;5051575;28;20124;-83
2022/08/09 12:45:51;;;;;;;1.48;0.40;;;30.20;49.90;;;;;;5051623;28;20126;-82
2022/08/09 12:48:18;;;;;;;2.00;0.50;;;29.80;50.80;;;;;;5053257;28;20053;-81